createdAt,value
2022-10-22T00:03:36.958Z,4.63
2022-10-22T00:07:39.342Z,2.83
2022-10-22T00:11:42.517Z,3.33
2022-10-22T00:15:44.239Z,4.10
2022-10-22T00:19:46.012Z,3.47
2022-10-22T00:23:48.080Z,4.80
2022-10-22T00:27:49.816Z,3.42
2022-10-22T00:31:51.851Z,3.20
2022-10-22T00:35:53.648Z,2.63
2022-10-22T00:39:55.323Z,3.30
2022-10-22T00:44:05.659Z,3.42
2022-10-22T00:48:27.217Z,3.42
2022-10-22T00:52:29.143Z,3.15
2022-10-22T00:56:30.993Z,3.50
2022-10-22T01:00:32.963Z,3.65
2022-10-22T01:04:34.738Z,3.65
2022-10-22T01:08:51.840Z,3.10
2022-10-22T01:13:21.100Z,2.75
2022-10-22T01:23:21.245Z,2.35
2022-10-22T01:27:42.900Z,2.80
2022-10-22T01:31:54.403Z,3.22
2022-10-22T01:35:57.483Z,2.67
2022-10-22T01:40:00.940Z,3.05
2022-10-22T01:44:02.684Z,3.58
2022-10-22T01:48:35.521Z,3.08
2022-10-22T01:52:58.307Z,2.80
2022-10-22T01:57:22.501Z,3.30
2022-10-22T02:01:32.959Z,3.38
2022-10-22T02:05:40.880Z,4.50
2022-10-22T02:09:44.775Z,4.43
2022-10-22T02:13:51.269Z,4.90
2022-10-22T02:17:55.295Z,4.85
2022-10-22T02:21:57.102Z,4.53
2022-10-22T02:26:10.275Z,3.80
2022-10-22T02:34:26.116Z,6.90
2022-10-22T02:38:29.183Z,5.93
2022-10-22T02:42:30.965Z,7.95
2022-10-22T02:46:33.140Z,6.68
2022-10-22T02:50:34.877Z,8.10
2022-10-22T02:54:36.656Z,5.85
2022-10-22T02:58:38.408Z,4.13
2022-10-22T03:02:40.482Z,3.38
2022-10-22T03:06:45.469Z,3.47
2022-10-22T03:10:47.626Z,3.67
2022-10-22T03:14:49.826Z,4.72
2022-10-22T03:18:51.764Z,3.78
2022-10-22T03:22:53.772Z,4.10
2022-10-22T03:26:56.249Z,3.13
2022-10-22T03:30:58.191Z,2.88
2022-10-22T03:39:08.209Z,3.17
2022-10-22T03:43:11.290Z,2.90
2022-10-22T03:47:14.539Z,3.38
2022-10-22T03:51:16.277Z,4.28
2022-10-22T03:55:18.015Z,3.75
2022-10-22T03:59:19.818Z,4.38
2022-10-22T04:03:21.508Z,4.35
2022-10-22T04:07:23.277Z,3.47
2022-10-22T04:11:25.044Z,4.40
2022-10-22T04:15:28.185Z,4.88
2022-10-22T04:19:30.034Z,3.30
2022-10-22T04:23:31.734Z,5.43
2022-10-22T04:27:34.378Z,7.18
2022-10-22T04:31:36.062Z,6.95
2022-10-22T04:35:39.902Z,7.22
2022-10-22T04:39:41.698Z,7.45
2022-10-22T04:43:44.043Z,5.28
2022-10-22T04:47:45.754Z,6.20
2022-10-22T04:51:47.445Z,5.72
2022-10-22T04:55:49.145Z,6.13
2022-10-22T04:59:50.860Z,6.30
2022-10-22T05:03:54.492Z,6.63
2022-10-22T05:07:56.198Z,8.20
2022-10-22T05:11:57.894Z,7.13
2022-10-22T05:16:02.157Z,7.00
2022-10-22T05:20:05.299Z,9.18
2022-10-22T05:24:07.454Z,6.43
2022-10-22T05:28:09.215Z,5.30
2022-10-22T05:32:10.915Z,6.15
2022-10-22T05:36:15.364Z,10.38
2022-10-22T05:40:26.899Z,12.48
2022-10-22T05:44:32.541Z,13.30
2022-10-22T05:48:35.091Z,12.05
2022-10-22T05:52:36.852Z,12.82
2022-10-22T05:56:38.577Z,13.13
2022-10-22T06:00:40.653Z,12.95
2022-10-22T06:04:42.437Z,11.73
2022-10-22T06:08:45.897Z,11.20
2022-10-22T06:12:48.250Z,11.98
2022-10-22T06:16:50.633Z,11.95
2022-10-22T06:20:52.361Z,7.20
2022-10-22T06:24:54.080Z,7.40
2022-10-22T06:28:56.843Z,8.07
2022-10-22T06:32:58.588Z,10.70
2022-10-22T06:37:00.351Z,9.45
2022-10-22T06:41:06.375Z,9.77
2022-10-22T06:45:08.987Z,8.80
2022-10-22T06:49:14.214Z,7.53
2022-10-22T06:53:16.085Z,6.07
2022-10-22T06:57:17.891Z,6.03
2022-10-22T07:01:22.769Z,5.70
2022-10-22T07:05:24.576Z,6.45
2022-10-22T07:09:26.364Z,4.22
2022-10-22T07:13:28.070Z,3.88
2022-10-22T07:17:29.827Z,3.15
2022-10-22T07:21:32.103Z,2.83
2022-10-22T07:25:33.816Z,6.15
2022-10-22T07:29:35.608Z,4.70
2022-10-22T07:33:37.695Z,3.70
2022-10-22T07:37:39.914Z,2.95
2022-10-22T07:41:41.847Z,2.80
2022-10-22T07:45:43.530Z,2.90
2022-10-22T07:49:45.221Z,3.20
2022-10-22T07:53:46.944Z,3.33
2022-10-22T07:57:48.572Z,3.22
2022-10-22T08:01:50.246Z,4.72
2022-10-22T08:05:52.314Z,5.45
2022-10-22T08:09:53.970Z,5.90
2022-10-22T08:13:55.626Z,7.05
2022-10-22T08:17:57.330Z,6.22
2022-10-22T08:21:59.533Z,6.07
2022-10-22T08:26:02.981Z,4.65
2022-10-22T08:30:06.035Z,5.80
2022-10-22T08:34:08.385Z,4.20
2022-10-22T08:38:10.052Z,3.28
2022-10-22T08:42:30.387Z,3.20
2022-10-22T08:46:56.740Z,2.67
2022-10-22T08:50:58.479Z,3.00
2022-10-22T08:55:02.322Z,2.35
2022-10-22T08:59:30.527Z,2.00
2022-10-22T09:03:44.292Z,1.80
2022-10-22T09:07:50.224Z,1.90
2022-10-22T09:11:52.947Z,1.27
2022-10-22T09:16:01.629Z,1.95
2022-10-22T09:20:13.516Z,4.78
2022-10-22T09:24:41.940Z,5.63
2022-10-22T09:28:44.016Z,2.58
2022-10-22T09:32:46.181Z,1.75
2022-10-22T09:36:47.866Z,1.50
2022-10-22T09:40:51.875Z,1.30
2022-10-22T09:44:56.375Z,1.48
2022-10-22T09:49:13.318Z,1.30
2022-10-22T09:53:21.832Z,1.50
2022-10-22T09:57:25.021Z,1.27
2022-10-22T10:01:31.831Z,1.30
2022-10-22T10:05:37.608Z,1.27
2022-10-22T10:09:39.523Z,1.27
2022-10-22T10:13:52.680Z,1.20
2022-10-22T10:18:00.958Z,1.13
2022-10-22T10:22:13.982Z,0.98
2022-10-22T10:26:39.958Z,1.20
2022-10-22T10:31:12.416Z,1.20
2022-10-22T10:35:16.967Z,1.35
2022-10-22T10:39:29.151Z,2.00
2022-10-22T10:43:51.940Z,1.77
2022-10-22T10:48:00.814Z,1.20
2022-10-22T10:52:26.202Z,1.10
2022-10-22T10:56:41.819Z,1.50
2022-10-22T11:01:15.856Z,1.13
2022-10-22T11:05:42.074Z,0.90
2022-10-22T11:09:57.325Z,1.10
2022-10-22T11:14:07.734Z,0.90
2022-10-22T11:18:28.973Z,1.10
2022-10-22T11:22:37.274Z,1.20
2022-10-22T11:26:52.149Z,1.13
2022-10-22T11:31:01.603Z,2.20
2022-10-22T11:35:07.385Z,1.33
2022-10-22T11:39:30.544Z,1.10
2022-10-22T11:43:49.034Z,1.30
2022-10-22T11:47:58.548Z,1.00
2022-10-22T11:52:22.713Z,1.08
2022-10-22T11:56:36.684Z,1.00
2022-10-22T12:00:48.888Z,1.20
2022-10-22T12:04:51.009Z,1.00
2022-10-22T12:09:04.727Z,1.08
2022-10-22T12:13:24.476Z,0.80
2022-10-22T12:17:28.643Z,1.60
2022-10-22T12:21:33.893Z,1.20
2022-10-22T12:25:36.589Z,1.40
2022-10-22T12:29:38.271Z,0.98
2022-10-22T12:33:39.916Z,1.60
2022-10-22T12:37:41.845Z,0.93
2022-10-22T12:41:44.483Z,0.90
2022-10-22T12:45:48.645Z,1.15
2022-10-22T12:49:50.814Z,0.90
2022-10-22T12:53:54.663Z,1.10
2022-10-22T12:57:56.342Z,0.70
2022-10-22T13:01:58.946Z,0.60
2022-10-22T13:06:18.701Z,0.80
2022-10-22T13:10:25.751Z,0.60
2022-10-22T13:14:37.461Z,0.60
2022-10-22T13:18:39.145Z,0.70
2022-10-22T13:22:53.033Z,0.60
2022-10-22T13:26:55.301Z,0.70
2022-10-22T13:31:00.289Z,0.70
2022-10-22T13:35:03.651Z,0.70
2022-10-22T13:39:08.871Z,0.70
2022-10-22T13:43:10.543Z,0.60
2022-10-22T13:47:22.223Z,0.80
2022-10-22T13:51:27.978Z,0.80
2022-10-22T13:55:30.707Z,0.63
2022-10-22T13:59:32.375Z,0.90
2022-10-22T14:03:37.220Z,1.25
2022-10-22T14:07:39.650Z,3.67
2022-10-22T14:11:41.680Z,2.08
2022-10-22T14:15:46.384Z,1.10
2022-10-22T14:19:49.213Z,1.52
2022-10-22T14:23:52.715Z,0.60
2022-10-22T14:27:54.768Z,0.70
2022-10-22T14:31:56.501Z,0.70
2022-10-22T14:36:01.790Z,0.70
2022-10-22T14:40:03.949Z,0.50
2022-10-22T14:44:05.615Z,0.68
2022-10-22T14:48:08.269Z,0.70
2022-10-22T14:52:12.899Z,0.60
2022-10-22T14:56:21.328Z,0.60
2022-10-22T15:00:23.178Z,0.52
2022-10-22T15:04:27.002Z,0.90
2022-10-22T15:08:29.177Z,0.80
2022-10-22T15:12:30.917Z,1.10
2022-10-22T15:16:32.619Z,0.90
2022-10-22T15:20:34.365Z,0.70
2022-10-22T15:24:36.947Z,0.80
2022-10-22T15:28:39.727Z,0.60
2022-10-22T15:32:41.597Z,0.52
2022-10-22T15:36:43.405Z,0.70
2022-10-22T15:40:45.359Z,0.60
2022-10-22T15:44:47.103Z,0.57
2022-10-22T15:48:48.746Z,0.55
2022-10-22T15:52:50.460Z,0.93
2022-10-22T15:56:52.263Z,0.90
2022-10-22T16:00:54.016Z,0.70
2022-10-22T16:04:55.701Z,0.65
2022-10-22T16:08:59.504Z,0.60
2022-10-22T16:13:01.259Z,0.63
2022-10-22T16:17:02.957Z,0.70
2022-10-22T16:21:04.859Z,0.70
2022-10-22T16:25:07.115Z,0.80
2022-10-22T16:29:11.431Z,0.77
2022-10-22T16:33:13.121Z,0.77
2022-10-22T16:37:14.769Z,0.82
2022-10-22T16:41:21.270Z,1.20
2022-10-22T16:45:22.991Z,2.25
2022-10-22T16:49:24.693Z,1.40
2022-10-22T16:53:26.401Z,1.65
2022-10-22T16:57:28.941Z,1.80
2022-10-22T17:01:30.766Z,1.30
2022-10-22T17:05:36.041Z,1.52
2022-10-22T17:09:37.727Z,2.08
2022-10-22T17:13:42.493Z,1.55
2022-10-22T17:17:48.307Z,1.42
2022-10-22T17:21:51.243Z,1.95
2022-10-22T17:25:58.873Z,1.63
2022-10-22T17:30:00.582Z,2.00
2022-10-22T17:34:02.326Z,2.10
2022-10-22T17:38:04.013Z,2.10
2022-10-22T17:42:06.209Z,1.95
2022-10-22T17:46:13.288Z,2.10
2022-10-22T17:54:16.752Z,2.17
2022-10-22T17:58:18.444Z,2.50
2022-10-22T18:02:20.576Z,2.25
2022-10-22T18:06:23.084Z,2.15
2022-10-22T18:10:24.878Z,1.60
2022-10-22T18:14:26.564Z,2.20
2022-10-22T18:18:28.670Z,2.50
2022-10-22T18:22:32.182Z,2.40
2022-10-22T18:26:33.881Z,2.15
2022-10-22T18:30:38.097Z,2.60
2022-10-22T18:34:39.997Z,2.60
2022-10-22T18:38:41.915Z,2.20
2022-10-22T18:42:44.978Z,1.67
2022-10-22T18:46:46.911Z,1.98
2022-10-22T18:51:08.507Z,1.42
2022-10-22T18:55:10.151Z,1.70
2022-10-22T18:59:17.890Z,1.55
2022-10-22T19:03:19.567Z,2.45
2022-10-22T19:07:21.263Z,2.63
2022-10-22T19:11:23.519Z,2.58
2022-10-22T19:15:25.242Z,2.10
2022-10-22T19:19:27.397Z,2.08
2022-10-22T19:23:30.502Z,1.92
2022-10-22T19:27:32.183Z,2.47
2022-10-22T19:31:36.080Z,2.22
2022-10-22T19:35:37.767Z,1.48
2022-10-22T19:39:39.459Z,1.63
2022-10-22T19:43:43.145Z,1.75
2022-10-22T19:47:44.812Z,1.63
2022-10-22T19:51:46.556Z,1.30
2022-10-22T19:55:48.326Z,1.50
2022-10-22T19:59:50.046Z,1.30
2022-10-22T20:03:52.430Z,1.08
2022-10-22T20:07:54.098Z,1.60
2022-10-22T20:11:55.780Z,2.80
2022-10-22T20:15:57.576Z,3.60
2022-10-22T20:19:59.639Z,2.55
2022-10-22T20:24:01.828Z,2.90
2022-10-22T20:28:03.637Z,1.80
2022-10-22T20:32:08.061Z,1.52
2022-10-22T20:36:16.028Z,1.27
2022-10-22T20:44:19.492Z,1.30
2022-10-22T20:48:21.741Z,1.20
2022-10-22T20:52:23.451Z,1.50
2022-10-22T20:56:26.407Z,1.00
2022-10-22T21:00:28.285Z,1.30
2022-10-22T21:04:30.741Z,1.48
2022-10-22T21:08:32.811Z,1.55
2022-10-22T21:12:34.708Z,1.88
2022-10-22T21:16:39.742Z,2.10
2022-10-22T21:20:41.921Z,2.50
2022-10-22T21:24:44.072Z,3.08
2022-10-22T21:28:46.107Z,1.92
2022-10-22T21:32:47.838Z,1.80
2022-10-22T21:36:49.585Z,1.40
2022-10-22T21:40:51.873Z,1.63
2022-10-22T21:44:53.617Z,1.40
2022-10-22T21:48:56.595Z,1.70
2022-10-22T21:52:58.326Z,1.70
2022-10-22T21:57:00.053Z,2.10
2022-10-22T22:01:03.127Z,1.67
2022-10-22T22:05:05.152Z,1.65
2022-10-22T22:09:07.315Z,1.38
2022-10-22T22:13:09.208Z,1.58
2022-10-22T22:17:11.152Z,2.15
2022-10-22T22:21:15.769Z,1.80
2022-10-22T22:25:17.572Z,1.45
2022-10-22T22:29:19.697Z,1.70
2022-10-22T22:33:21.838Z,1.98
2022-10-22T22:37:23.713Z,1.80
2022-10-22T22:41:25.582Z,1.67
2022-10-22T22:45:27.353Z,1.40
2022-10-22T22:49:29.068Z,1.83
2022-10-22T22:53:31.140Z,1.73
2022-10-22T22:57:33.170Z,1.88
2022-10-22T23:01:41.392Z,2.25
2022-10-22T23:05:43.201Z,1.80
2022-10-22T23:09:45.194Z,1.52
2022-10-22T23:13:47.709Z,1.80
2022-10-22T23:17:49.438Z,1.52
2022-10-22T23:21:53.922Z,1.27
2022-10-22T23:25:56.042Z,1.55
2022-10-22T23:29:58.035Z,1.75
2022-10-22T23:34:00.366Z,2.15
2022-10-22T23:38:02.116Z,1.20
2022-10-22T23:42:03.913Z,1.35
2022-10-22T23:46:07.985Z,1.60
2022-10-22T23:50:09.806Z,1.40
2022-10-22T23:54:14.320Z,1.30
2022-10-22T23:58:17.302Z,1.50
